Forest Hills, New York
Current Conditions -  °F | °C
As of 4:51 PM on Sunday 23 Nov 2014 (Local Time) from KLGA Reporting Station
Broken Clouds Broken Clouds  
Wind Chill: 51°   Ceiling: 25000
Heat Index: 51°   Visibility: 10mi
Dew Point: 34°   Wind: 7mph
Humidity: 52%   Direction: 180°S
Pressure: 30.13"   Gusts: NA
Location:  40.72°N, 73.85°W
Report Text: KLGA 232151Z 18006KT 10SM FEW150 BKN250 11/01 A3013 RMK AO2 SLP203 T01060011
Loading
Personal Weather Stations






























Interactive Weather Map New forecast layout! Learn more

10-Day Weather Forecast

Advertisements
Track Severe Weather on mobile